Terminal Aerodrome Forecast
Issued by NWS Upton, NY

Home | Current Version | Previous Version | Text Only | Print | Product List | Glossary On
Versions: 1 2 3 4 5 6 7 8 9 10 11 12 13 14 15 16 17 18 19 20 21 22 23 24 25 26 27 28 29
000
FTUS41 KOKX 220200 AAA
TAFBDR
TAF AMD
KBDR 220234Z 2203/2224 12007KT P6SM BKN050
      TEMPO 2203/2206 5SM SHRA BKN015
     FM220600 09007KT 6SM BR OVC015
      TEMPO 2210/2213 5SM BR
     FM221500 09008KT P6SM BKN025 OVC035=

USA.gov is the U.S. government's official web portal to all federal, state and local government web resources and services.